Time;durP1;ratioP1;P1;durP2;ratioP2;P2;SDS_P1;SDS_P2;PMS_P1;PMS_P2;Temp;Humidity;BMP_temperature;BMP_pressure;BME280_temperature;BME280_humidity;BME280_pressure;Samples;Min_cycle;Max_cycle;Signal;HPM_P1;HPM_P2
2021/03/26 00:01:24;;;;;;;14.40;11.73;;;8.40;99.90;;;;;;5072911;28;20275;-71
2021/03/26 00:03:55;;;;;;;15.73;12.87;;;8.20;99.90;;;;;;5073135;28;20225;-70
2021/03/26 00:06:25;;;;;;;15.33;12.33;;;8.10;99.90;;;;;;5072554;28;20206;-70
2021/03/26 00:08:52;;;;;;;15.27;12.77;;;8.20;99.90;;;;;;5073058;28;20202;-71
2021/03/26 00:11:19;;;;;;;17.43;14.13;;;8.20;99.90;;;;;;5072780;28;20207;-71
2021/03/26 00:13:47;;;;;;;15.53;13.57;;;8.20;99.90;;;;;;5072511;28;20206;-71
2021/03/26 00:16:13;;;;;;;16.67;12.53;;;8.20;99.90;;;;;;5072419;28;20516;-71
2021/03/26 00:18:40;;;;;;;15.73;12.67;;;8.10;99.90;;;;;;5072670;28;20206;-71
2021/03/26 00:21:07;;;;;;;17.73;14.10;;;8.10;99.90;;;;;;5071724;28;20202;-71
2021/03/26 00:23:34;;;;;;;19.40;13.17;;;8.10;99.90;;;;;;5072998;28;20206;-71
2021/03/26 00:26:01;;;;;;;16.87;13.00;;;8.00;99.90;;;;;;5072675;28;20202;-71
2021/03/26 00:28:28;;;;;;;14.27;12.17;;;8.00;99.90;;;;;;5072625;28;20209;-71
2021/03/26 00:30:56;;;;;;;14.90;13.23;;;8.10;99.90;;;;;;5072589;28;20616;-71
2021/03/26 00:33:22;;;;;;;16.43;12.33;;;8.00;99.90;;;;;;5072136;28;20221;-71
2021/03/26 00:35:49;;;;;;;14.57;12.90;;;8.10;99.90;;;;;;5071903;28;20206;-71
2021/03/26 00:38:16;;;;;;;22.27;14.37;;;8.00;99.90;;;;;;5071933;28;20233;-71
2021/03/26 00:40:42;;;;;;;18.40;13.80;;;8.00;99.90;;;;;;5072712;28;20257;-70
2021/03/26 00:43:09;;;;;;;16.33;13.90;;;7.90;99.90;;;;;;5071814;28;20758;-70
2021/03/26 00:45:38;;;;;;;14.47;12.97;;;8.00;99.90;;;;;;5072609;28;20206;-71
2021/03/26 00:48:07;;;;;;;20.57;13.30;;;7.90;99.90;;;;;;5071726;28;20218;-71
2021/03/26 00:50:37;;;;;;;18.20;12.97;;;7.70;99.90;;;;;;5057733;28;20669;-71
2021/03/26 00:53:07;;;;;;;14.43;12.83;;;7.80;99.90;;;;;;5072052;28;20622;-70
2021/03/26 00:55:34;;;;;;;19.37;15.03;;;8.00;99.90;;;;;;5071801;28;20244;-71
2021/03/26 00:58:00;;;;;;;18.90;15.47;;;7.90;99.90;;;;;;5072189;28;20580;-70
2021/03/26 01:00:28;;;;;;;17.53;13.10;;;7.80;99.90;;;;;;5071929;28;20226;-71
2021/03/26 01:02:56;;;;;;;18.03;13.13;;;7.90;99.90;;;;;;5072050;28;20209;-70
2021/03/26 01:05:25;;;;;;;18.17;13.70;;;7.90;99.90;;;;;;5071377;28;20213;-70
2021/03/26 01:07:52;;;;;;;17.40;14.60;;;7.80;99.90;;;;;;5071738;28;20731;-71
2021/03/26 01:10:21;;;;;;;15.73;14.03;;;7.90;99.90;;;;;;5071349;28;20206;-72
2021/03/26 01:12:48;;;;;;;17.03;13.83;;;7.90;99.90;;;;;;5071738;28;20206;-71
2021/03/26 01:15:16;;;;;;;22.10;13.07;;;8.00;99.90;;;;;;5071378;28;20202;-71
2021/03/26 01:17:44;;;;;;;17.30;14.47;;;7.90;99.90;;;;;;5071531;28;20202;-71
2021/03/26 01:20:15;;;;;;;16.73;13.97;;;7.90;99.90;;;;;;5071232;28;20233;-71
2021/03/26 01:22:43;;;;;;;15.67;12.23;;;7.80;99.90;;;;;;5071610;28;20199;-71
2021/03/26 01:25:11;;;;;;;16.40;13.67;;;7.90;99.90;;;;;;5070930;28;20210;-71
2021/03/26 01:27:38;;;;;;;15.50;13.20;;;7.80;99.90;;;;;;5070203;28;20634;-70
2021/03/26 01:30:09;;;;;;;14.97;13.33;;;7.80;99.90;;;;;;5070736;28;20670;-71
2021/03/26 01:32:36;;;;;;;15.13;13.43;;;7.70;99.90;;;;;;5070812;28;20601;-72
2021/03/26 01:35:04;;;;;;;19.37;13.03;;;7.70;99.90;;;;;;5071432;28;20271;-72
2021/03/26 01:37:30;;;;;;;16.03;14.50;;;7.60;99.90;;;;;;5071464;28;20202;-71
2021/03/26 01:39:58;;;;;;;16.93;12.53;;;7.60;99.90;;;;;;5071139;28;20610;-72
2021/03/26 01:42:26;;;;;;;18.03;12.97;;;7.60;99.90;;;;;;5070667;28;20647;-71
2021/03/26 01:44:53;;;;;;;14.87;12.97;;;7.60;99.90;;;;;;5070928;28;20751;-71
2021/03/26 01:47:19;;;;;;;14.90;12.60;;;7.50;99.90;;;;;;5070681;28;20677;-72
2021/03/26 01:49:46;;;;;;;14.27;12.77;;;7.30;99.90;;;;;;5070919;28;20206;-70
2021/03/26 01:52:12;;;;;;;14.90;11.87;;;7.20;99.90;;;;;;5070505;28;20205;-70
2021/03/26 01:54:39;;;;;;;16.57;11.93;;;7.20;99.90;;;;;;5070884;28;20685;-71
2021/03/26 01:57:07;;;;;;;13.70;11.50;;;7.30;99.90;;;;;;5070154;28;20209;-70
2021/03/26 01:59:34;;;;;;;18.33;11.57;;;7.20;99.90;;;;;;5071130;28;20244;-70
2021/03/26 02:02:05;;;;;;;13.57;10.43;;;7.20;99.90;;;;;;5070955;28;20202;-70
2021/03/26 02:04:35;;;;;;;12.17;10.83;;;7.40;99.90;;;;;;5071025;28;20267;-71
2021/03/26 02:07:03;;;;;;;12.50;10.20;;;7.40;99.90;;;;;;5070517;28;20202;-71
2021/03/26 02:09:33;;;;;;;15.40;10.87;;;7.30;99.90;;;;;;5070968;28;20216;-71
2021/03/26 02:12:04;;;;;;;12.20;10.67;;;7.30;99.90;;;;;;5071250;28;20206;-71
2021/03/26 02:14:36;;;;;;;17.77;11.53;;;7.20;99.90;;;;;;5070907;28;20665;-71
2021/03/26 02:17:03;;;;;;;14.73;10.03;;;7.00;99.90;;;;;;5070441;28;20202;-72
2021/03/26 02:19:34;;;;;;;16.63;10.83;;;6.90;99.90;;;;;;5071091;28;20233;-72
2021/03/26 02:22:02;;;;;;;12.67;10.83;;;6.90;99.90;;;;;;5070859;28;20217;-71
2021/03/26 02:24:30;;;;;;;14.07;10.83;;;6.90;99.90;;;;;;5070909;28;20207;-71
2021/03/26 02:26:59;;;;;;;11.73;10.20;;;6.90;99.90;;;;;;5068827;28;20206;-71
2021/03/26 02:29:28;;;;;;;14.83;10.30;;;7.00;99.90;;;;;;5070343;28;20276;-71
2021/03/26 02:31:57;;;;;;;13.50;9.57;;;6.90;99.90;;;;;;5070257;28;20208;-71
2021/03/26 02:34:25;;;;;;;13.23;10.33;;;7.00;99.90;;;;;;5069886;28;20214;-71
2021/03/26 02:36:55;;;;;;;10.90;9.50;;;7.00;99.90;;;;;;5070810;28;20213;-71
2021/03/26 02:39:30;;;;;;;12.07;9.83;;;7.00;99.90;;;;;;5069524;28;20229;-70
2021/03/26 02:42:00;;;;;;;13.03;10.20;;;7.00;99.90;;;;;;5070172;28;20546;-71
2021/03/26 02:44:36;;;;;;;14.80;10.90;;;7.00;99.90;;;;;;5069943;28;20206;-71
2021/03/26 02:47:23;;;;;;;13.23;10.00;;;6.90;99.90;;;;;;5070035;28;20218;-71
2021/03/26 02:49:55;;;;;;;13.90;10.23;;;6.90;99.90;;;;;;5070229;28;20549;-70
2021/03/26 02:52:28;;;;;;;11.80;10.37;;;6.90;99.90;;;;;;5069961;28;20213;-70
2021/03/26 02:55:02;;;;;;;14.30;10.00;;;6.90;99.90;;;;;;5069891;28;20202;-70
2021/03/26 02:57:34;;;;;;;11.57;9.60;;;6.80;99.90;;;;;;5070571;28;20218;-70
2021/03/26 03:00:09;;;;;;;13.03;10.07;;;6.80;99.90;;;;;;5070016;28;20263;-71
2021/03/26 03:02:38;;;;;;;11.00;9.70;;;6.80;99.90;;;;;;5070234;28;20220;-71
2021/03/26 03:05:10;;;;;;;16.10;11.20;;;6.70;99.90;;;;;;5069523;28;20582;-71
2021/03/26 03:07:41;;;;;;;11.60;10.40;;;6.70;99.90;;;;;;5070202;28;20209;-70
2021/03/26 03:10:19;;;;;;;18.10;10.33;;;6.60;99.90;;;;;;5069298;28;20214;-70
2021/03/26 03:12:46;;;;;;;18.23;11.40;;;6.70;99.90;;;;;;5070244;28;20268;-70
2021/03/26 03:15:21;;;;;;;15.80;12.37;;;6.60;99.90;;;;;;5069242;28;20697;-70
2021/03/26 03:17:55;;;;;;;15.53;11.37;;;6.70;99.90;;;;;;5070300;28;20253;-70
2021/03/26 03:20:28;;;;;;;13.87;11.80;;;6.70;99.90;;;;;;5069277;28;20237;-69
2021/03/26 03:23:02;;;;;;;13.63;10.83;;;6.80;99.90;;;;;;5069872;28;20217;-69
2021/03/26 03:25:31;;;;;;;15.73;11.37;;;6.70;99.90;;;;;;5070140;28;20217;-68
2021/03/26 03:28:12;;;;;;;16.93;11.13;;;6.70;99.90;;;;;;5070072;28;20623;-68
2021/03/26 03:30:50;;;;;;;12.33;10.77;;;6.50;99.90;;;;;;5069601;28;20206;-69
2021/03/26 03:33:23;;;;;;;16.97;12.17;;;6.40;99.90;;;;;;5069367;28;20209;-68
2021/03/26 03:35:56;;;;;;;16.10;12.70;;;6.40;99.90;;;;;;5069677;28;20206;-69
2021/03/26 03:38:46;;;;;;;13.60;10.87;;;6.40;99.90;;;;;;5069613;28;20207;-68
2021/03/26 03:41:20;;;;;;;15.17;12.00;;;6.50;99.90;;;;;;5068973;28;20229;-69
2021/03/26 03:43:55;;;;;;;13.87;12.27;;;6.60;99.90;;;;;;5069458;28;20723;-68
2021/03/26 03:46:27;;;;;;;12.73;10.53;;;6.70;99.90;;;;;;5069265;28;20642;-68
2021/03/26 03:49:02;;;;;;;17.80;12.40;;;6.70;99.90;;;;;;5069769;28;20214;-68
2021/03/26 03:51:36;;;;;;;16.77;13.07;;;6.70;99.90;;;;;;5073187;28;20720;-68
2021/03/26 03:54:06;;;;;;;14.03;11.10;;;6.60;99.90;;;;;;5073425;28;20210;-68
2021/03/26 03:56:38;;;;;;;13.13;11.47;;;6.50;99.90;;;;;;5072840;28;20259;-68
2021/03/26 03:59:11;;;;;;;15.77;12.07;;;6.60;99.90;;;;;;5072323;28;20681;-68
2021/03/26 04:01:44;;;;;;;16.40;13.03;;;6.60;99.90;;;;;;5073046;28;20202;-69
2021/03/26 04:04:18;;;;;;;15.80;11.60;;;6.70;99.90;;;;;;5072404;28;20206;-68
2021/03/26 04:06:51;;;;;;;13.40;11.63;;;6.50;99.90;;;;;;5072965;28;20245;-69
2021/03/26 04:09:22;;;;;;;16.23;12.37;;;6.50;99.90;;;;;;5072424;28;20372;-68
2021/03/26 04:11:53;;;;;;;12.57;10.87;;;6.40;99.90;;;;;;5072774;28;20203;-69
2021/03/26 04:14:23;;;;;;;15.57;13.67;;;6.50;99.90;;;;;;5072174;28;20685;-68
2021/03/26 04:16:54;;;;;;;15.90;11.97;;;6.60;99.90;;;;;;5073053;28;20206;-68
2021/03/26 04:19:25;;;;;;;15.03;11.17;;;6.50;99.90;;;;;;5072544;28;20217;-68
2021/03/26 04:21:57;;;;;;;15.43;12.60;;;6.30;99.90;;;;;;5072784;28;20762;-68
2021/03/26 04:24:29;;;;;;;20.27;12.00;;;6.30;99.90;;;;;;5072205;28;20206;-68
2021/03/26 04:27:02;;;;;;;13.13;11.73;;;6.20;99.90;;;;;;5072221;28;20214;-68
2021/03/26 04:29:33;;;;;;;17.27;10.83;;;6.10;99.90;;;;;;5072629;28;20221;-68
2021/03/26 04:32:07;;;;;;;17.83;10.60;;;6.10;99.90;;;;;;5072511;28;20205;-68
2021/03/26 04:34:37;;;;;;;14.17;11.77;;;6.20;99.90;;;;;;5072545;28;20205;-68
2021/03/26 04:37:09;;;;;;;15.47;11.00;;;6.30;99.90;;;;;;5073845;28;20569;-69
2021/03/26 04:39:46;;;;;;;12.07;10.20;;;6.10;99.90;;;;;;5072390;28;20222;-69
2021/03/26 04:42:19;;;;;;;12.50;10.33;;;6.30;99.90;;;;;;5071135;28;20210;-68
2021/03/26 04:44:51;;;;;;;11.53;10.43;;;6.30;99.90;;;;;;5070315;28;20252;-68
2021/03/26 04:47:24;;;;;;;13.93;10.20;;;6.30;99.90;;;;;;5071233;28;20313;-68
2021/03/26 04:49:55;;;;;;;13.80;11.23;;;6.30;99.90;;;;;;5072046;28;20212;-68
2021/03/26 04:52:26;;;;;;;13.20;10.37;;;6.40;99.90;;;;;;5071726;28;20214;-69
2021/03/26 04:55:01;;;;;;;13.90;10.80;;;6.40;99.90;;;;;;5071884;28;20210;-69
2021/03/26 04:57:35;;;;;;;14.63;11.37;;;6.40;99.90;;;;;;5071584;28;20209;-69
2021/03/26 05:00:08;;;;;;;14.33;11.30;;;6.30;99.90;;;;;;5072065;28;20639;-69
2021/03/26 05:02:36;;;;;;;14.07;11.90;;;6.20;99.90;;;;;;5071147;28;20198;-69
2021/03/26 05:05:05;;;;;;;15.63;11.57;;;6.10;99.90;;;;;;5071799;28;20198;-69
2021/03/26 05:07:35;;;;;;;14.50;12.17;;;6.20;99.90;;;;;;5071876;28;20210;-67
2021/03/26 05:10:06;;;;;;;13.13;11.80;;;6.30;99.90;;;;;;5071570;28;20202;-68
2021/03/26 05:12:36;;;;;;;17.53;12.77;;;6.40;99.90;;;;;;5071666;28;20631;-70
2021/03/26 05:15:08;;;;;;;14.23;12.73;;;6.20;99.90;;;;;;5071566;28;20202;-69
2021/03/26 05:17:40;;;;;;;13.53;11.17;;;6.10;99.90;;;;;;5071722;28;20210;-69
2021/03/26 05:20:17;;;;;;;14.67;11.67;;;6.10;99.90;;;;;;5071143;28;20309;-69
2021/03/26 05:22:48;;;;;;;17.70;12.80;;;6.10;99.90;;;;;;5071631;28;20296;-68
2021/03/26 05:25:22;;;;;;;17.60;12.30;;;6.00;99.90;;;;;;5070687;28;20206;-70
2021/03/26 05:27:49;;;;;;;14.80;12.47;;;6.20;99.90;;;;;;5071290;28;20688;-69
2021/03/26 05:30:21;;;;;;;16.43;12.53;;;6.30;99.90;;;;;;5070966;28;20210;-68
2021/03/26 05:32:55;;;;;;;15.37;12.27;;;6.40;99.90;;;;;;5071416;28;20210;-68
2021/03/26 05:35:25;;;;;;;16.03;11.83;;;6.40;99.90;;;;;;5070730;28;20285;-70
2021/03/26 05:38:13;;;;;;;19.27;12.40;;;6.50;99.90;;;;;;5071156;28;20252;-69
2021/03/26 05:41:15;;;;;;;16.70;12.53;;;6.40;99.90;;;;;;5071084;28;20222;-69
2021/03/26 05:44:01;;;;;;;14.97;13.07;;;6.40;99.90;;;;;;5055504;28;20700;-68
2021/03/26 05:46:40;;;;;;;15.97;12.20;;;6.40;99.90;;;;;;5070801;28;20214;-70
2021/03/26 05:49:12;;;;;;;14.03;10.53;;;6.50;99.90;;;;;;5070651;28;20202;-69
2021/03/26 05:52:29;;;;;;;14.73;11.50;;;6.50;99.90;;;;;;5056886;28;20626;-68
2021/03/26 05:55:09;;;;;;;14.10;10.83;;;6.10;99.90;;;;;;5000561;28;20205;-69
2021/03/26 05:57:42;;;;;;;15.73;11.03;;;6.00;99.90;;;;;;5061962;28;20210;-68
2021/03/26 06:00:53;;;;;;;14.03;11.73;;;6.20;99.90;;;;;;5056335;28;20355;-68
2021/03/26 06:03:37;;;;;;;13.37;10.03;;;6.30;99.90;;;;;;5040205;28;20213;-68
2021/03/26 06:06:33;;;;;;;15.27;10.80;;;6.40;99.90;;;;;;5070767;28;20206;-68
2021/03/26 06:09:24;;;;;;;14.70;11.10;;;6.20;99.90;;;;;;5068721;28;20674;-68
2021/03/26 06:12:11;;;;;;;12.83;11.47;;;6.10;99.90;;;;;;5070351;28;20206;-68
2021/03/26 06:15:27;;;;;;;13.93;11.03;;;6.30;99.90;;;;;;5070796;28;20301;-69
2021/03/26 06:18:06;;;;;;;13.77;11.27;;;6.60;99.90;;;;;;5052880;28;20206;-67
2021/03/26 06:20:51;;;;;;;16.87;11.53;;;6.30;99.90;;;;;;5070385;28;20705;-69
2021/03/26 06:24:11;;;;;;;15.00;12.37;;;6.20;99.90;;;;;;5069867;28;20206;-68
2021/03/26 06:27:07;;;;;;;12.70;10.63;;;6.30;99.90;;;;;;5003875;28;20302;-67
2021/03/26 06:29:46;;;;;;;12.87;10.57;;;6.50;99.90;;;;;;5028625;28;20219;-68
2021/03/26 06:32:49;;;;;;;13.17;10.83;;;6.50;99.90;;;;;;5064500;28;20609;-68
2021/03/26 06:35:46;;;;;;;14.57;11.50;;;6.70;99.90;;;;;;5070074;28;20213;-68
2021/03/26 06:38:34;;;;;;;15.63;11.30;;;6.80;99.90;;;;;;5051316;28;20267;-69
2021/03/26 06:41:10;;;;;;;14.37;10.80;;;7.10;99.90;;;;;;5070297;28;20233;-68
2021/03/26 06:44:07;;;;;;;15.43;10.90;;;7.30;99.90;;;;;;5070326;28;20205;-68
2021/03/26 06:46:45;;;;;;;15.23;11.03;;;7.30;99.90;;;;;;5070131;28;20217;-69
2021/03/26 06:49:24;;;;;;;13.87;10.07;;;7.50;99.90;;;;;;5069541;28;20194;-69
2021/03/26 06:52:06;;;;;;;15.20;11.23;;;7.80;99.90;;;;;;5069993;28;20247;-68
2021/03/26 06:55:00;;;;;;;12.63;10.93;;;7.60;99.90;;;;;;5069540;28;20700;-69
2021/03/26 06:57:55;;;;;;;15.60;11.07;;;7.80;99.90;;;;;;5070141;28;20209;-68
2021/03/26 07:00:42;;;;;;;14.20;10.83;;;8.00;99.90;;;;;;5070024;28;20673;-69
2021/03/26 07:03:31;;;;;;;20.47;11.30;;;7.90;99.90;;;;;;5067979;28;20616;-68
2021/03/26 07:06:16;;;;;;;17.00;11.43;;;8.00;99.90;;;;;;5067846;28;20625;-68
2021/03/26 07:09:00;;;;;;;13.73;10.27;;;8.10;99.90;;;;;;5067701;28;20199;-71
2021/03/26 07:11:51;;;;;;;16.87;11.53;;;8.40;99.90;;;;;;5069584;28;20209;-69
2021/03/26 07:14:43;;;;;;;11.40;10.20;;;8.60;99.90;;;;;;5067539;28;20678;-70
2021/03/26 07:17:43;;;;;;;13.80;10.70;;;8.60;99.90;;;;;;5062433;28;20205;-68
2021/03/26 07:20:49;;;;;;;14.67;11.27;;;8.60;99.90;;;;;;5068963;28;20222;-68
2021/03/26 07:23:47;;;;;;;15.50;12.03;;;8.50;99.90;;;;;;5069307;28;20206;-68
2021/03/26 07:26:24;;;;;;;12.93;11.07;;;8.40;99.90;;;;;;5073116;28;20209;-68
2021/03/26 07:29:27;;;;;;;16.43;11.73;;;8.50;99.90;;;;;;5073302;28;20198;-68
2021/03/26 07:32:14;;;;;;;17.70;12.03;;;8.60;99.90;;;;;;5073224;28;20236;-68
2021/03/26 07:34:51;;;;;;;15.57;11.57;;;9.20;99.90;;;;;;5073444;28;20229;-68
2021/03/26 07:37:27;;;;;;;16.50;11.60;;;9.00;99.90;;;;;;5072936;28;20256;-68
2021/03/26 07:40:02;;;;;;;17.43;11.73;;;8.80;99.90;;;;;;5072673;28;20727;-69
2021/03/26 07:42:46;;;;;;;14.63;10.83;;;9.30;99.90;;;;;;5072157;28;20747;-69
2021/03/26 07:45:43;;;;;;;14.67;10.30;;;9.60;99.90;;;;;;5072987;28;20288;-69
2021/03/26 07:48:38;;;;;;;14.40;10.33;;;10.00;99.90;;;;;;5072846;28;20686;-69
2021/03/26 07:51:15;;;;;;;23.43;12.07;;;10.30;99.90;;;;;;5055267;28;20215;-69
2021/03/26 07:53:55;;;;;;;17.67;11.13;;;10.00;99.90;;;;;;5073427;28;20585;-70
2021/03/26 07:56:46;;;;;;;19.27;11.13;;;10.00;99.90;;;;;;5072647;28;20732;-70
2021/03/26 07:59:36;;;;;;;12.13;9.00;;;10.10;99.90;;;;;;5070937;28;20207;-71
2021/03/26 08:02:33;;;;;;;16.60;10.47;;;10.30;99.90;;;;;;5067793;28;20255;-70
2021/03/26 08:05:06;;;;;;;9.67;8.67;;;10.50;99.90;;;;;;5072627;28;20244;-70
2021/03/26 08:07:57;;;;;;;13.03;9.07;;;10.10;99.90;;;;;;5073182;28;20225;-71
2021/03/26 08:10:39;;;;;;;14.30;9.37;;;10.40;99.90;;;;;;5072389;28;20336;-70
2021/03/26 08:13:28;;;;;;;9.83;8.43;;;10.50;99.90;;;;;;5070906;28;20206;-71
2021/03/26 08:16:10;;;;;;;11.50;10.20;;;10.70;99.90;;;;;;5072758;28;20277;-72
2021/03/26 08:18:53;;;;;;;9.70;8.70;;;11.10;99.90;;;;;;5070532;28;20214;-73
2021/03/26 08:21:26;;;;;;;11.40;9.77;;;11.10;99.90;;;;;;5071142;28;20222;-73
2021/03/26 08:24:22;;;;;;;11.47;9.40;;;11.30;99.90;;;;;;5070552;28;20198;-73
2021/03/26 08:26:58;;;;;;;11.63;8.90;;;11.90;99.90;;;;;;5067390;28;20241;-73
2021/03/26 08:29:32;;;;;;;10.97;9.90;;;12.40;99.90;;;;;;5072261;28;20253;-73
2021/03/26 08:32:39;;;;;;;15.80;10.20;;;12.60;99.90;;;;;;5072539;28;20709;-73
2021/03/26 08:35:31;;;;;;;11.60;9.47;;;12.30;99.90;;;;;;5064474;28;20263;-74
2021/03/26 08:38:12;;;;;;;12.97;11.03;;;12.40;99.90;;;;;;5072560;28;20194;-73
2021/03/26 08:40:49;;;;;;;13.23;9.30;;;12.90;99.90;;;;;;5072263;28;20230;-73
2021/03/26 08:43:18;;;;;;;11.77;9.73;;;12.70;99.90;;;;;;5071933;28;20261;-73
2021/03/26 08:45:49;;;;;;;12.30;10.13;;;13.20;99.90;;;;;;5072037;28;20217;-74
2021/03/26 08:48:31;;;;;;;14.63;9.17;;;13.30;99.90;;;;;;5071337;28;20210;-74
2021/03/26 08:51:13;;;;;;;9.73;8.33;;;13.50;99.90;;;;;;5071536;28;20206;-74
2021/03/26 08:53:50;;;;;;;12.47;9.93;;;13.40;99.90;;;;;;5071832;28;20207;-73
2021/03/26 08:56:50;;;;;;;16.13;10.70;;;13.60;99.90;;;;;;5071097;28;20209;-74
2021/03/26 08:59:43;;;;;;;14.47;9.70;;;13.70;99.90;;;;;;5067894;28;20275;-74
2021/03/26 09:02:42;;;;;;;11.18;9.02;;;14.20;99.90;;;;;;5068968;28;20667;-73
2021/03/26 09:05:36;;;;;;;12.77;9.43;;;14.80;99.90;;;;;;5069419;28;20228;-74
2021/03/26 09:08:21;;;;;;;12.95;9.80;;;14.60;99.90;;;;;;5066678;28;20206;-73
2021/03/26 09:11:38;;;;;;;8.75;7.95;;;15.80;99.90;;;;;;5071516;28;20246;-73
2021/03/26 09:14:43;;;;;;;11.60;9.52;;;15.90;99.90;;;;;;5069745;28;20232;-74
2021/03/26 09:17:16;;;;;;;10.63;9.32;;;14.70;99.90;;;;;;5052632;28;20210;-73
2021/03/26 09:19:47;;;;;;;10.60;8.18;;;14.10;99.90;;;;;;5071367;28;20198;-74
2021/03/26 09:22:30;;;;;;;11.73;8.10;;;14.70;99.90;;;;;;5071101;28;20614;-74
2021/03/26 09:25:20;;;;;;;10.55;8.00;;;15.80;99.90;;;;;;5071251;28;20207;-73
2021/03/26 09:27:52;;;;;;;12.23;9.05;;;15.40;99.90;;;;;;5060653;28;20693;-73
2021/03/26 09:30:22;;;;;;;16.33;9.57;;;15.40;99.90;;;;;;5070581;28;20697;-73
2021/03/26 09:32:52;;;;;;;9.52;7.47;;;16.30;99.90;;;;;;5070896;28;20767;-74
2021/03/26 09:35:23;;;;;;;18.00;8.57;;;16.90;99.90;;;;;;5070709;28;20688;-73
2021/03/26 09:37:54;;;;;;;11.68;7.68;;;18.40;99.90;;;;;;5070786;28;20202;-73
2021/03/26 09:40:34;;;;;;;7.85;5.85;;;18.70;99.90;;;;;;5069969;28;20308;-74
2021/03/26 09:43:21;;;;;;;8.10;5.80;;;19.20;99.90;;;;;;5070605;28;20202;-73
2021/03/26 09:46:00;;;;;;;6.30;5.70;;;19.20;99.90;;;;;;5070490;28;20202;-71
2021/03/26 09:48:50;;;;;;;6.93;6.10;;;19.80;99.90;;;;;;5070178;28;20218;-73
2021/03/26 09:51:34;;;;;;;7.82;5.22;;;20.00;99.90;;;;;;5070158;28;20251;-71
2021/03/26 09:54:15;;;;;;;7.28;6.22;;;18.70;99.90;;;;;;5071011;28;20678;-74
2021/03/26 09:56:48;;;;;;;7.57;6.45;;;18.80;99.90;;;;;;5070220;28;20256;-74
2021/03/26 09:59:34;;;;;;;8.02;6.10;;;18.50;99.90;;;;;;5070358;28;20210;-72
2021/03/26 10:02:12;;;;;;;7.68;5.72;;;20.20;99.90;;;;;;5070640;28;20842;-72
2021/03/26 10:04:45;;;;;;;8.75;5.75;;;21.30;99.90;;;;;;5070194;28;20210;-72
2021/03/26 10:07:28;;;;;;;7.10;5.75;;;22.70;99.90;;;;;;5070238;28;20202;-75
2021/03/26 10:12:41;;;;;;;7.18;5.60;;;23.30;99.90;;;;;;5070215;28;20208;-72
2021/03/26 10:15:21;;;;;;;8.93;6.63;;;22.60;99.90;;;;;;5069966;28;20214;-72
2021/03/26 10:17:53;;;;;;;8.82;5.32;;;22.30;99.90;;;;;;5070341;28;20202;-72
2021/03/26 10:20:37;;;;;;;9.20;5.82;;;23.40;99.90;;;;;;5069688;28;20815;-72
2021/03/26 10:23:25;;;;;;;9.57;5.78;;;21.40;99.90;;;;;;5069813;28;20198;-72
2021/03/26 10:26:01;;;;;;;7.40;5.80;;;21.50;99.90;;;;;;5057841;28;20226;-72
2021/03/26 10:28:58;;;;;;;7.10;6.22;;;22.00;99.90;;;;;;5061820;28;20252;-71
2021/03/26 10:31:35;;;;;;;5.85;5.00;;;20.60;99.90;;;;;;5069274;28;20225;-73
2021/03/26 10:34:05;;;;;;;6.55;5.93;;;21.10;99.90;;;;;;5069942;28;20231;-73
2021/03/26 10:36:43;;;;;;;9.15;5.68;;;19.60;99.90;;;;;;5070618;28;20547;-72
2021/03/26 10:39:12;;;;;;;8.27;5.38;;;18.50;99.90;;;;;;5069875;28;20217;-72
2021/03/26 10:42:00;;;;;;;11.25;6.07;;;18.20;99.90;;;;;;5070026;28;20234;-73
2021/03/26 10:44:35;;;;;;;8.85;6.47;;;18.20;99.90;;;;;;5068368;28;20214;-73
2021/03/26 10:47:14;;;;;;;7.28;5.40;;;18.40;99.90;;;;;;5070180;28;20209;-72
2021/03/26 10:49:46;;;;;;;5.78;4.65;;;18.20;99.90;;;;;;5068044;28;20201;-74
2021/03/26 10:52:16;;;;;;;8.45;6.25;;;18.30;99.90;;;;;;5068903;28;20686;-73
2021/03/26 10:54:49;;;;;;;7.20;5.25;;;18.30;99.90;;;;;;5069492;28;20259;-73
2021/03/26 10:57:38;;;;;;;7.93;5.72;;;18.20;99.90;;;;;;5069023;28;20210;-73
2021/03/26 11:00:20;;;;;;;7.43;5.05;;;18.40;99.90;;;;;;5069036;28;20225;-73
2021/03/26 11:03:10;;;;;;;7.45;5.55;;;18.10;99.90;;;;;;5073988;28;20210;-73
2021/03/26 11:05:48;;;;;;;6.13;4.88;;;18.30;99.90;;;;;;5068927;28;20271;-73
2021/03/26 11:08:37;;;;;;;6.80;5.30;;;18.30;99.90;;;;;;5073707;28;20206;-72
2021/03/26 11:11:12;;;;;;;7.30;4.82;;;18.60;99.90;;;;;;5073534;28;20692;-73
2021/03/26 11:13:47;;;;;;;7.25;4.65;;;18.80;99.90;;;;;;5073691;28;20209;-73
2021/03/26 11:16:22;;;;;;;6.18;4.68;;;18.90;99.90;;;;;;5073534;28;20206;-73
2021/03/26 11:18:57;;;;;;;5.05;4.55;;;18.90;99.90;;;;;;5073911;28;20201;-72
2021/03/26 11:21:26;;;;;;;6.85;5.30;;;18.70;99.90;;;;;;5072674;28;20325;-73
2021/03/26 11:23:58;;;;;;;5.15;4.65;;;18.70;99.90;;;;;;5073320;28;20223;-73
2021/03/26 11:26:30;;;;;;;7.88;6.45;;;19.10;99.90;;;;;;5073285;28;20301;-73
2021/03/26 11:29:02;;;;;;;7.78;4.35;;;19.10;99.90;;;;;;5073570;28;20243;-73
2021/03/26 11:31:34;;;;;;;4.93;4.28;;;19.20;99.90;;;;;;5073849;28;20229;-73
2021/03/26 11:34:14;;;;;;;30.45;19.58;;;19.70;99.90;;;;;;5073647;28;20206;-74
2021/03/26 11:36:55;;;;;;;7.55;5.38;;;20.20;99.90;;;;;;5073540;28;20662;-74
2021/03/26 11:39:29;;;;;;;6.07;5.18;;;19.70;99.90;;;;;;5073129;28;20210;-73
2021/03/26 11:42:23;;;;;;;4.95;4.45;;;19.20;99.90;;;;;;5072722;28;20222;-73
2021/03/26 11:44:55;;;;;;;7.93;5.10;;;19.10;99.90;;;;;;5072865;28;20217;-74
2021/03/26 11:47:34;;;;;;;7.38;5.18;;;19.10;99.90;;;;;;5072772;28;21047;-74
2021/03/26 11:50:09;;;;;;;6.72;4.93;;;18.80;99.90;;;;;;5064307;28;20194;-74
2021/03/26 11:52:42;;;;;;;7.82;4.88;;;19.00;99.90;;;;;;5073062;28;20194;-73
2021/03/26 11:55:16;;;;;;;6.25;5.63;;;18.70;99.90;;;;;;5064086;28;20202;-75
2021/03/26 11:57:52;;;;;;;7.13;6.43;;;19.00;99.90;;;;;;5072791;28;20201;-74
2021/03/26 12:00:21;;;;;;;6.13;5.45;;;19.80;99.90;;;;;;5064002;28;20213;-74
2021/03/26 12:03:15;;;;;;;8.48;5.50;;;19.60;99.90;;;;;;5072902;28;20198;-74
2021/03/26 12:06:18;;;;;;;7.60;5.82;;;19.50;99.90;;;;;;5067053;28;20574;-73
2021/03/26 12:08:57;;;;;;;9.00;5.20;;;19.70;99.90;;;;;;5063682;28;20198;-73
2021/03/26 12:11:31;;;;;;;6.88;6.20;;;19.60;99.90;;;;;;5071388;28;20567;-73
2021/03/26 12:14:07;;;;;;;5.43;4.82;;;19.70;99.90;;;;;;5072913;28;20198;-74
2021/03/26 12:16:39;;;;;;;9.25;6.97;;;19.50;99.90;;;;;;5071964;28;20210;-74
2021/03/26 12:19:15;;;;;;;10.88;7.50;;;19.70;99.90;;;;;;5072175;28;20210;-74
2021/03/26 12:21:53;;;;;;;8.10;6.22;;;19.80;99.90;;;;;;5072677;28;20222;-72
2021/03/26 12:24:28;;;;;;;7.80;5.07;;;20.10;99.90;;;;;;5069861;28;20210;-72
2021/03/26 12:27:15;;;;;;;6.53;5.55;;;20.40;99.90;;;;;;5069918;28;20209;-73
2021/03/26 12:29:47;;;;;;;7.18;5.10;;;20.10;99.90;;;;;;5072328;28;20209;-72
2021/03/26 12:32:28;;;;;;;9.18;5.72;;;20.10;99.90;;;;;;5071966;28;20267;-73
2021/03/26 12:35:15;;;;;;;9.02;4.97;;;20.10;99.90;;;;;;5072388;28;20202;-74
2021/03/26 12:37:49;;;;;;;6.88;5.38;;;20.50;99.90;;;;;;5072233;28;20738;-73
2021/03/26 12:40:45;;;;;;;11.02;6.32;;;20.70;99.90;;;;;;5071863;28;20304;-72
2021/03/26 12:43:16;;;;;;;11.23;8.63;;;20.50;99.90;;;;;;5071211;28;20194;-72
2021/03/26 12:45:51;;;;;;;6.38;5.20;;;20.70;99.90;;;;;;5072491;28;20206;-71
2021/03/26 12:48:20;;;;;;;5.68;5.13;;;20.20;99.90;;;;;;5069421;28;20206;-73
2021/03/26 12:50:52;;;;;;;7.85;5.50;;;20.40;99.90;;;;;;5072125;28;20666;-73
2021/03/26 12:53:25;;;;;;;7.05;5.28;;;20.30;99.90;;;;;;5071331;28;20584;-73
2021/03/26 12:56:14;;;;;;;5.47;4.60;;;20.30;99.90;;;;;;5071815;28;20202;-74
2021/03/26 12:59:05;;;;;;;8.27;4.93;;;20.20;99.90;;;;;;5069731;28;20593;-73
2021/03/26 13:01:38;;;;;;;7.75;4.80;;;20.30;99.90;;;;;;5076068;28;20234;-74
2021/03/26 13:04:13;;;;;;;7.05;5.10;;;20.40;99.90;;;;;;5071051;28;20194;-75
2021/03/26 13:06:42;;;;;;;7.55;4.85;;;20.10;99.90;;;;;;5069983;28;20201;-74
2021/03/26 13:09:27;;;;;;;5.78;4.63;;;20.30;99.90;;;;;;5070088;28;20199;-73
2021/03/26 13:11:59;;;;;;;5.32;4.63;;;20.20;99.90;;;;;;5071541;28;20209;-74
2021/03/26 13:14:31;;;;;;;7.60;5.35;;;20.40;99.90;;;;;;5063024;28;20263;-75
2021/03/26 13:16:58;;;;;;;8.60;5.18;;;20.10;99.90;;;;;;5071154;28;20682;-74
2021/03/26 13:19:35;;;;;;;10.13;5.18;;;20.50;99.90;;;;;;5071121;28;20210;-74
2021/03/26 13:22:32;;;;;;;7.18;4.82;;;20.50;99.90;;;;;;5070298;28;20697;-75
2021/03/26 13:25:09;;;;;;;6.10;4.47;;;20.20;99.90;;;;;;5071606;28;20202;-74
2021/03/26 13:27:39;;;;;;;6.40;5.75;;;20.50;99.90;;;;;;5071548;28;20202;-74
2021/03/26 13:30:41;;;;;;;8.98;5.47;;;20.20;99.90;;;;;;5070812;28;20320;-75
2021/03/26 13:33:22;;;;;;;8.27;5.13;;;20.00;99.90;;;;;;5070641;28;20259;-74
2021/03/26 13:36:00;;;;;;;5.63;5.13;;;19.90;99.90;;;;;;5070438;28;20202;-74